sensor_id;sensor_type;location;lat;lon;timestamp;temperature;humidity
3923;DHT22;1976;51.694;6.256;2022-09-12T00:01:14;16.40;99.90
3923;DHT22;1976;51.694;6.256;2022-09-12T00:03:41;16.30;99.90
3923;DHT22;1976;51.694;6.256;2022-09-12T00:06:13;16.30;99.90
3923;DHT22;1976;51.694;6.256;2022-09-12T00:08:40;16.30;99.90
3923;DHT22;1976;51.694;6.256;2022-09-12T00:11:09;16.30;99.90
3923;DHT22;1976;51.694;6.256;2022-09-12T00:13:35;16.30;99.90
3923;DHT22;1976;51.694;6.256;2022-09-12T00:16:01;16.20;99.90
3923;DHT22;1976;51.694;6.256;2022-09-12T00:18:27;16.20;99.90
3923;DHT22;1976;51.694;6.256;2022-09-12T00:20:53;16.20;99.90
3923;DHT22;1976;51.694;6.256;2022-09-12T00:23:18;16.20;99.90
3923;DHT22;1976;51.694;6.256;2022-09-12T00:25:46;16.10;99.90
3923;DHT22;1976;51.694;6.256;2022-09-12T00:28:13;16.20;99.90
3923;DHT22;1976;51.694;6.256;2022-09-12T00:30:41;16.10;99.90
3923;DHT22;1976;51.694;6.256;2022-09-12T00:33:08;16.10;99.90
3923;DHT22;1976;51.694;6.256;2022-09-12T00:35:34;16.10;99.90
3923;DHT22;1976;51.694;6.256;2022-09-12T00:37:59;16.10;99.90
3923;DHT22;1976;51.694;6.256;2022-09-12T00:40:25;16.10;99.90
3923;DHT22;1976;51.694;6.256;2022-09-12T00:42:52;16.00;99.90
3923;DHT22;1976;51.694;6.256;2022-09-12T00:45:23;16.00;99.90
3923;DHT22;1976;51.694;6.256;2022-09-12T00:47:52;16.00;99.90
3923;DHT22;1976;51.694;6.256;2022-09-12T00:50:18;16.00;99.90
3923;DHT22;1976;51.694;6.256;2022-09-12T00:52:57;16.00;99.90
3923;DHT22;1976;51.694;6.256;2022-09-12T00:55:46;15.90;99.90
3923;DHT22;1976;51.694;6.256;2022-09-12T00:58:23;15.90;99.90
3923;DHT22;1976;51.694;6.256;2022-09-12T01:00:50;15.80;99.90
3923;DHT22;1976;51.694;6.256;2022-09-12T01:03:19;15.80;99.90
3923;DHT22;1976;51.694;6.256;2022-09-12T01:06:11;15.70;99.90
3923;DHT22;1976;51.694;6.256;2022-09-12T01:08:39;15.70;99.90
3923;DHT22;1976;51.694;6.256;2022-09-12T01:11:09;15.60;99.90
3923;DHT22;1976;51.694;6.256;2022-09-12T01:13:36;15.60;99.90
3923;DHT22;1976;51.694;6.256;2022-09-12T01:16:06;15.50;99.90
3923;DHT22;1976;51.694;6.256;2022-09-12T01:18:54;15.50;99.90
3923;DHT22;1976;51.694;6.256;2022-09-12T01:21:50;15.40;99.90
3923;DHT22;1976;51.694;6.256;2022-09-12T01:35:32;15.20;99.90
3923;DHT22;1976;51.694;6.256;2022-09-12T01:38:20;15.10;99.90
3923;DHT22;1976;51.694;6.256;2022-09-12T01:40:51;15.20;99.90
3923;DHT22;1976;51.694;6.256;2022-09-12T01:43:22;15.10;99.90
3923;DHT22;1976;51.694;6.256;2022-09-12T01:45:59;15.00;99.90
3923;DHT22;1976;51.694;6.256;2022-09-12T01:48:29;15.00;99.90
3923;DHT22;1976;51.694;6.256;2022-09-12T01:51:19;15.00;99.90
3923;DHT22;1976;51.694;6.256;2022-09-12T01:53:58;15.00;99.90
3923;DHT22;1976;51.694;6.256;2022-09-12T01:56:32;15.00;99.90
3923;DHT22;1976;51.694;6.256;2022-09-12T01:59:00;15.00;99.90
3923;DHT22;1976;51.694;6.256;2022-09-12T02:01:33;14.90;99.90
3923;DHT22;1976;51.694;6.256;2022-09-12T02:04:14;15.00;99.90
3923;DHT22;1976;51.694;6.256;2022-09-12T02:09:20;15.10;99.90
3923;DHT22;1976;51.694;6.256;2022-09-12T02:11:49;15.00;99.90
3923;DHT22;1976;51.694;6.256;2022-09-12T02:14:37;15.00;99.90
3923;DHT22;1976;51.694;6.256;2022-09-12T02:17:16;15.00;99.90
3923;DHT22;1976;51.694;6.256;2022-09-12T02:19:48;15.00;99.90
3923;DHT22;1976;51.694;6.256;2022-09-12T02:22:18;15.00;99.90
3923;DHT22;1976;51.694;6.256;2022-09-12T02:24:48;15.10;99.90
3923;DHT22;1976;51.694;6.256;2022-09-12T02:27:19;15.00;99.90
3923;DHT22;1976;51.694;6.256;2022-09-12T02:29:46;15.00;99.90
3923;DHT22;1976;51.694;6.256;2022-09-12T02:32:40;15.00;99.90
3923;DHT22;1976;51.694;6.256;2022-09-12T02:35:12;15.00;99.90
3923;DHT22;1976;51.694;6.256;2022-09-12T02:40:28;15.00;99.90
3923;DHT22;1976;51.694;6.256;2022-09-12T02:42:53;15.00;99.90
3923;DHT22;1976;51.694;6.256;2022-09-12T02:45:20;14.90;99.90
3923;DHT22;1976;51.694;6.256;2022-09-12T02:50:28;15.00;99.90
3923;DHT22;1976;51.694;6.256;2022-09-12T02:52:54;15.00;99.90
3923;DHT22;1976;51.694;6.256;2022-09-12T02:55:25;15.00;99.90
3923;DHT22;1976;51.694;6.256;2022-09-12T02:57:51;14.90;99.90
3923;DHT22;1976;51.694;6.256;2022-09-12T03:00:17;15.00;99.90
3923;DHT22;1976;51.694;6.256;2022-09-12T03:05:59;14.90;99.90
3923;DHT22;1976;51.694;6.256;2022-09-12T03:11:35;14.90;99.90
3923;DHT22;1976;51.694;6.256;2022-09-12T03:17:45;15.00;99.90
3923;DHT22;1976;51.694;6.256;2022-09-12T03:20:10;15.00;99.90
3923;DHT22;1976;51.694;6.256;2022-09-12T03:25:40;14.90;99.90
3923;DHT22;1976;51.694;6.256;2022-09-12T03:28:10;14.90;99.90
3923;DHT22;1976;51.694;6.256;2022-09-12T03:30:41;15.00;99.90
3923;DHT22;1976;51.694;6.256;2022-09-12T03:33:19;15.00;99.90
3923;DHT22;1976;51.694;6.256;2022-09-12T03:35:45;15.10;99.90
3923;DHT22;1976;51.694;6.256;2022-09-12T03:38:11;15.10;99.90
3923;DHT22;1976;51.694;6.256;2022-09-12T03:40:38;15.10;99.90
3923;DHT22;1976;51.694;6.256;2022-09-12T03:45:30;15.10;99.90
3923;DHT22;1976;51.694;6.256;2022-09-12T03:47:56;15.10;99.90
3923;DHT22;1976;51.694;6.256;2022-09-12T03:50:22;15.10;99.90
3923;DHT22;1976;51.694;6.256;2022-09-12T03:52:48;15.10;99.90
3923;DHT22;1976;51.694;6.256;2022-09-12T03:55:14;15.10;99.90
3923;DHT22;1976;51.694;6.256;2022-09-12T03:57:40;15.10;99.90
3923;DHT22;1976;51.694;6.256;2022-09-12T04:00:06;15.10;99.90
3923;DHT22;1976;51.694;6.256;2022-09-12T04:02:35;15.10;99.90
3923;DHT22;1976;51.694;6.256;2022-09-12T04:05:01;15.10;99.90
3923;DHT22;1976;51.694;6.256;2022-09-12T04:07:28;15.10;99.90
3923;DHT22;1976;51.694;6.256;2022-09-12T04:09:53;15.10;99.90
3923;DHT22;1976;51.694;6.256;2022-09-12T04:12:19;15.10;99.90
3923;DHT22;1976;51.694;6.256;2022-09-12T04:14:45;15.10;99.90
3923;DHT22;1976;51.694;6.256;2022-09-12T04:17:11;15.10;99.90
3923;DHT22;1976;51.694;6.256;2022-09-12T04:19:37;15.10;99.90
3923;DHT22;1976;51.694;6.256;2022-09-12T04:22:04;15.20;99.90
3923;DHT22;1976;51.694;6.256;2022-09-12T04:24:29;15.20;99.90
3923;DHT22;1976;51.694;6.256;2022-09-12T04:26:55;15.20;99.90
3923;DHT22;1976;51.694;6.256;2022-09-12T04:29:21;15.20;99.90
3923;DHT22;1976;51.694;6.256;2022-09-12T04:31:47;15.20;99.90
3923;DHT22;1976;51.694;6.256;2022-09-12T04:34:13;15.30;99.90
3923;DHT22;1976;51.694;6.256;2022-09-12T04:36:39;15.30;99.90
3923;DHT22;1976;51.694;6.256;2022-09-12T04:39:05;15.30;99.90
3923;DHT22;1976;51.694;6.256;2022-09-12T04:41:36;15.30;99.90
3923;DHT22;1976;51.694;6.256;2022-09-12T04:44:08;15.40;99.90
3923;DHT22;1976;51.694;6.256;2022-09-12T04:46:36;15.30;99.90
3923;DHT22;1976;51.694;6.256;2022-09-12T04:49:03;15.40;99.90
3923;DHT22;1976;51.694;6.256;2022-09-12T04:51:31;15.30;99.90
3923;DHT22;1976;51.694;6.256;2022-09-12T04:54:04;15.30;99.90
3923;DHT22;1976;51.694;6.256;2022-09-12T04:56:30;15.30;99.90
3923;DHT22;1976;51.694;6.256;2022-09-12T04:59:00;15.30;99.90
3923;DHT22;1976;51.694;6.256;2022-09-12T05:01:27;15.30;99.90
3923;DHT22;1976;51.694;6.256;2022-09-12T05:03:54;15.30;99.90
3923;DHT22;1976;51.694;6.256;2022-09-12T05:06:28;15.40;99.90
3923;DHT22;1976;51.694;6.256;2022-09-12T05:08:54;15.40;99.90
3923;DHT22;1976;51.694;6.256;2022-09-12T05:11:23;15.50;99.90
3923;DHT22;1976;51.694;6.256;2022-09-12T05:13:49;15.50;99.90
3923;DHT22;1976;51.694;6.256;2022-09-12T05:18:43;15.50;99.90
3923;DHT22;1976;51.694;6.256;2022-09-12T05:21:12;15.50;99.90
3923;DHT22;1976;51.694;6.256;2022-09-12T05:23:38;15.60;99.90
3923;DHT22;1976;51.694;6.256;2022-09-12T05:26:05;15.60;99.90
3923;DHT22;1976;51.694;6.256;2022-09-12T05:28:34;15.60;99.90
3923;DHT22;1976;51.694;6.256;2022-09-12T05:31:07;15.60;99.90
3923;DHT22;1976;51.694;6.256;2022-09-12T05:33:35;15.60;99.90
3923;DHT22;1976;51.694;6.256;2022-09-12T05:36:03;15.60;99.90
3923;DHT22;1976;51.694;6.256;2022-09-12T05:38:28;15.70;99.90
3923;DHT22;1976;51.694;6.256;2022-09-12T05:41:05;15.70;99.90
3923;DHT22;1976;51.694;6.256;2022-09-12T05:43:35;15.80;99.90
3923;DHT22;1976;51.694;6.256;2022-09-12T05:46:03;15.80;99.90
3923;DHT22;1976;51.694;6.256;2022-09-12T05:48:29;15.90;99.90
3923;DHT22;1976;51.694;6.256;2022-09-12T05:51:09;15.90;99.90
3923;DHT22;1976;51.694;6.256;2022-09-12T05:53:36;15.90;99.90
3923;DHT22;1976;51.694;6.256;2022-09-12T05:56:10;15.90;99.90
3923;DHT22;1976;51.694;6.256;2022-09-12T05:58:38;16.00;99.90
3923;DHT22;1976;51.694;6.256;2022-09-12T06:01:15;16.00;99.90
3923;DHT22;1976;51.694;6.256;2022-09-12T06:03:43;16.00;99.90
3923;DHT22;1976;51.694;6.256;2022-09-12T06:06:10;16.00;99.90
3923;DHT22;1976;51.694;6.256;2022-09-12T06:08:40;15.90;99.90
3923;DHT22;1976;51.694;6.256;2022-09-12T06:11:08;15.90;99.90
3923;DHT22;1976;51.694;6.256;2022-09-12T06:13:36;15.90;99.90
3923;DHT22;1976;51.694;6.256;2022-09-12T06:16:22;15.80;99.90
3923;DHT22;1976;51.694;6.256;2022-09-12T06:18:53;15.80;99.90
3923;DHT22;1976;51.694;6.256;2022-09-12T06:21:20;15.80;99.90
3923;DHT22;1976;51.694;6.256;2022-09-12T06:23:46;15.80;99.90
3923;DHT22;1976;51.694;6.256;2022-09-12T06:26:13;15.80;99.90
3923;DHT22;1976;51.694;6.256;2022-09-12T06:28:41;15.80;99.90
3923;DHT22;1976;51.694;6.256;2022-09-12T06:31:11;15.80;99.90
3923;DHT22;1976;51.694;6.256;2022-09-12T06:33:39;15.90;99.90
3923;DHT22;1976;51.694;6.256;2022-09-12T06:36:28;16.00;99.90
3923;DHT22;1976;51.694;6.256;2022-09-12T06:39:05;16.00;99.90
3923;DHT22;1976;51.694;6.256;2022-09-12T06:41:32;16.10;99.90
3923;DHT22;1976;51.694;6.256;2022-09-12T06:43:58;16.10;99.90
3923;DHT22;1976;51.694;6.256;2022-09-12T06:46:25;16.10;99.90
3923;DHT22;1976;51.694;6.256;2022-09-12T06:48:51;16.10;99.90
3923;DHT22;1976;51.694;6.256;2022-09-12T06:51:18;16.10;99.90
3923;DHT22;1976;51.694;6.256;2022-09-12T06:53:45;16.10;99.90
3923;DHT22;1976;51.694;6.256;2022-09-12T06:56:18;16.20;99.90
3923;DHT22;1976;51.694;6.256;2022-09-12T06:58:46;16.20;99.90
3923;DHT22;1976;51.694;6.256;2022-09-12T07:03:40;16.10;99.90
3923;DHT22;1976;51.694;6.256;2022-09-12T07:06:11;16.20;99.90
3923;DHT22;1976;51.694;6.256;2022-09-12T07:08:38;16.20;99.90
3923;DHT22;1976;51.694;6.256;2022-09-12T07:11:13;16.20;99.90
3923;DHT22;1976;51.694;6.256;2022-09-12T07:13:40;16.20;99.90
3923;DHT22;1976;51.694;6.256;2022-09-12T07:16:06;16.10;99.90
3923;DHT22;1976;51.694;6.256;2022-09-12T07:18:33;16.20;99.90
3923;DHT22;1976;51.694;6.256;2022-09-12T07:21:00;16.20;99.90
3923;DHT22;1976;51.694;6.256;2022-09-12T07:23:27;16.20;99.90
3923;DHT22;1976;51.694;6.256;2022-09-12T07:25:57;16.20;99.90
3923;DHT22;1976;51.694;6.256;2022-09-12T07:28:24;16.20;99.90
3923;DHT22;1976;51.694;6.256;2022-09-12T07:30:50;16.10;99.90
3923;DHT22;1976;51.694;6.256;2022-09-12T07:33:22;16.00;99.90
3923;DHT22;1976;51.694;6.256;2022-09-12T07:35:49;16.10;99.90
3923;DHT22;1976;51.694;6.256;2022-09-12T07:38:17;16.00;99.90
3923;DHT22;1976;51.694;6.256;2022-09-12T07:40:43;16.00;99.90
3923;DHT22;1976;51.694;6.256;2022-09-12T07:43:09;16.00;99.90
3923;DHT22;1976;51.694;6.256;2022-09-12T07:45:34;16.20;99.90
3923;DHT22;1976;51.694;6.256;2022-09-12T07:48:00;16.30;99.90
3923;DHT22;1976;51.694;6.256;2022-09-12T07:50:26;16.40;99.90
3923;DHT22;1976;51.694;6.256;2022-09-12T07:52:54;16.70;99.90
3923;DHT22;1976;51.694;6.256;2022-09-12T07:55:20;16.90;99.90
3923;DHT22;1976;51.694;6.256;2022-09-12T07:57:52;16.90;99.90
3923;DHT22;1976;51.694;6.256;2022-09-12T08:00:18;17.00;99.90
3923;DHT22;1976;51.694;6.256;2022-09-12T08:02:44;17.10;99.90
3923;DHT22;1976;51.694;6.256;2022-09-12T08:05:10;17.20;99.90
3923;DHT22;1976;51.694;6.256;2022-09-12T08:07:36;17.30;99.90
3923;DHT22;1976;51.694;6.256;2022-09-12T08:10:01;17.40;99.90
3923;DHT22;1976;51.694;6.256;2022-09-12T08:12:28;17.50;99.90
3923;DHT22;1976;51.694;6.256;2022-09-12T08:14:53;17.60;99.90
3923;DHT22;1976;51.694;6.256;2022-09-12T08:17:19;17.80;99.90
3923;DHT22;1976;51.694;6.256;2022-09-12T08:19:45;17.90;99.90
3923;DHT22;1976;51.694;6.256;2022-09-12T08:22:11;18.20;99.90
3923;DHT22;1976;51.694;6.256;2022-09-12T08:24:38;18.30;99.90
3923;DHT22;1976;51.694;6.256;2022-09-12T08:27:05;18.60;99.90
3923;DHT22;1976;51.694;6.256;2022-09-12T08:29:31;18.70;99.90
3923;DHT22;1976;51.694;6.256;2022-09-12T08:31:57;18.70;99.90
3923;DHT22;1976;51.694;6.256;2022-09-12T08:34:22;18.90;99.90
3923;DHT22;1976;51.694;6.256;2022-09-12T08:36:49;19.00;99.90
3923;DHT22;1976;51.694;6.256;2022-09-12T08:39:15;19.30;99.90
3923;DHT22;1976;51.694;6.256;2022-09-12T08:41:46;19.70;99.90
3923;DHT22;1976;51.694;6.256;2022-09-12T08:47:16;20.70;99.90
3923;DHT22;1976;51.694;6.256;2022-09-12T08:52:56;22.30;99.90
3923;DHT22;1976;51.694;6.256;2022-09-12T08:55:44;22.70;99.90
3923;DHT22;1976;51.694;6.256;2022-09-12T08:58:13;23.20;99.90
3923;DHT22;1976;51.694;6.256;2022-09-12T09:04:16;24.20;99.90
3923;DHT22;1976;51.694;6.256;2022-09-12T09:07:24;24.60;99.90
3923;DHT22;1976;51.694;6.256;2022-09-12T09:15:47;25.30;98.50
3923;DHT22;1976;51.694;6.256;2022-09-12T09:18:20;25.40;98.20
3923;DHT22;1976;51.694;6.256;2022-09-12T09:20:57;25.70;97.70
3923;DHT22;1976;51.694;6.256;2022-09-12T09:23:37;26.20;97.30
3923;DHT22;1976;51.694;6.256;2022-09-12T09:26:14;27.10;96.00
3923;DHT22;1976;51.694;6.256;2022-09-12T09:31:20;28.00;93.60
3923;DHT22;1976;51.694;6.256;2022-09-12T09:33:51;28.10;93.10
3923;DHT22;1976;51.694;6.256;2022-09-12T09:36:22;28.50;92.80
3923;DHT22;1976;51.694;6.256;2022-09-12T09:44:39;29.80;90.80
3923;DHT22;1976;51.694;6.256;2022-09-12T09:47:07;30.40;90.30
3923;DHT22;1976;51.694;6.256;2022-09-12T09:49:34;30.70;89.30
3923;DHT22;1976;51.694;6.256;2022-09-12T09:52:01;31.70;86.50
3923;DHT22;1976;51.694;6.256;2022-09-12T09:54:41;32.10;84.70
3923;DHT22;1976;51.694;6.256;2022-09-12T10:08:21;32.60;79.70
3923;DHT22;1976;51.694;6.256;2022-09-12T10:10:55;32.90;79.50
3923;DHT22;1976;51.694;6.256;2022-09-12T10:16:20;34.20;77.60
3923;DHT22;1976;51.694;6.256;2022-09-12T10:18:48;35.90;71.60
3923;DHT22;1976;51.694;6.256;2022-09-12T10:21:26;35.90;71.60
3923;DHT22;1976;51.694;6.256;2022-09-12T10:24:23;36.70;67.40
3923;DHT22;1976;51.694;6.256;2022-09-12T10:27:19;37.30;66.50
3923;DHT22;1976;51.694;6.256;2022-09-12T10:30:03;38.30;62.80
3923;DHT22;1976;51.694;6.256;2022-09-12T10:32:39;38.20;62.00
3923;DHT22;1976;51.694;6.256;2022-09-12T10:35:14;38.70;60.10
3923;DHT22;1976;51.694;6.256;2022-09-12T10:38:34;38.90;57.90
3923;DHT22;1976;51.694;6.256;2022-09-12T10:40:41;39.00;56.90
3923;DHT22;1976;51.694;6.256;2022-09-12T10:43:25;38.60;55.20
3923;DHT22;1976;51.694;6.256;2022-09-12T10:45:56;38.70;57.80
3923;DHT22;1976;51.694;6.256;2022-09-12T10:48:32;38.60;56.50
3923;DHT22;1976;51.694;6.256;2022-09-12T10:50:59;38.50;55.00
3923;DHT22;1976;51.694;6.256;2022-09-12T10:53:47;38.60;55.80
3923;DHT22;1976;51.694;6.256;2022-09-12T10:56:17;39.40;55.10
3923;DHT22;1976;51.694;6.256;2022-09-12T11:09:46;38.00;53.90
3923;DHT22;1976;51.694;6.256;2022-09-12T11:17:59;39.30;50.80
3923;DHT22;1976;51.694;6.256;2022-09-12T11:34:52;38.70;50.60
3923;DHT22;1976;51.694;6.256;2022-09-12T11:37:44;39.20;50.90
3923;DHT22;1976;51.694;6.256;2022-09-12T11:40:22;39.70;50.00
3923;DHT22;1976;51.694;6.256;2022-09-12T11:42:51;40.10;50.70
3923;DHT22;1976;51.694;6.256;2022-09-12T11:45:27;41.20;47.10
3923;DHT22;1976;51.694;6.256;2022-09-12T11:47:58;40.50;46.90
3923;DHT22;1976;51.694;6.256;2022-09-12T11:50:30;39.70;46.10
3923;DHT22;1976;51.694;6.256;2022-09-12T11:53:18;38.80;46.90
3923;DHT22;1976;51.694;6.256;2022-09-12T11:55:59;37.20;47.50
3923;DHT22;1976;51.694;6.256;2022-09-12T11:58:29;36.50;48.80
3923;DHT22;1976;51.694;6.256;2022-09-12T12:01:09;35.90;53.30
3923;DHT22;1976;51.694;6.256;2022-09-12T12:03:43;36.10;49.00
3923;DHT22;1976;51.694;6.256;2022-09-12T12:06:26;36.90;50.30
3923;DHT22;1976;51.694;6.256;2022-09-12T12:08:55;37.80;51.20
3923;DHT22;1976;51.694;6.256;2022-09-12T12:13:59;38.00;50.00
3923;DHT22;1976;51.694;6.256;2022-09-12T12:16:36;39.20;47.50
3923;DHT22;1976;51.694;6.256;2022-09-12T12:19:05;38.60;48.10
3923;DHT22;1976;51.694;6.256;2022-09-12T12:21:44;37.80;47.40
3923;DHT22;1976;51.694;6.256;2022-09-12T12:24:14;37.50;47.90
3923;DHT22;1976;51.694;6.256;2022-09-12T12:34:40;35.50;49.00
3923;DHT22;1976;51.694;6.256;2022-09-12T12:44:57;34.50;51.40
3923;DHT22;1976;51.694;6.256;2022-09-12T12:47:26;35.20;51.10
3923;DHT22;1976;51.694;6.256;2022-09-12T12:52:22;35.00;51.40
3923;DHT22;1976;51.694;6.256;2022-09-12T12:54:51;34.30;49.70
3923;DHT22;1976;51.694;6.256;2022-09-12T12:57:44;33.60;51.20
3923;DHT22;1976;51.694;6.256;2022-09-12T13:00:07;33.30;51.50
3923;DHT22;1976;51.694;6.256;2022-09-12T13:03:00;33.40;52.10
3923;DHT22;1976;51.694;6.256;2022-09-12T13:05:28;33.50;51.50
3923;DHT22;1976;51.694;6.256;2022-09-12T13:08:03;33.10;51.10
3923;DHT22;1976;51.694;6.256;2022-09-12T13:10:31;33.20;52.50
3923;DHT22;1976;51.694;6.256;2022-09-12T13:13:01;33.60;51.70
3923;DHT22;1976;51.694;6.256;2022-09-12T13:18:31;34.10;51.50
3923;DHT22;1976;51.694;6.256;2022-09-12T13:23:31;35.40;50.50
3923;DHT22;1976;51.694;6.256;2022-09-12T13:26:01;35.60;49.60
3923;DHT22;1976;51.694;6.256;2022-09-12T13:28:28;35.80;49.50
3923;DHT22;1976;51.694;6.256;2022-09-12T13:31:40;36.70;49.10
3923;DHT22;1976;51.694;6.256;2022-09-12T13:33:50;37.90;48.00
3923;DHT22;1976;51.694;6.256;2022-09-12T13:39:25;36.50;46.00
3923;DHT22;1976;51.694;6.256;2022-09-12T13:44:28;36.60;47.80
3923;DHT22;1976;51.694;6.256;2022-09-12T13:46:59;37.10;46.80
3923;DHT22;1976;51.694;6.256;2022-09-12T13:49:31;37.60;47.30
3923;DHT22;1976;51.694;6.256;2022-09-12T13:52:08;37.50;46.60
3923;DHT22;1976;51.694;6.256;2022-09-12T13:54:38;36.80;48.00
3923;DHT22;1976;51.694;6.256;2022-09-12T13:57:05;36.20;46.80
3923;DHT22;1976;51.694;6.256;2022-09-12T13:59:39;35.40;46.90
3923;DHT22;1976;51.694;6.256;2022-09-12T14:04:49;34.80;48.80
3923;DHT22;1976;51.694;6.256;2022-09-12T14:07:49;34.20;50.50
3923;DHT22;1976;51.694;6.256;2022-09-12T14:13:24;34.70;48.80
3923;DHT22;1976;51.694;6.256;2022-09-12T14:15:52;35.00;49.50
3923;DHT22;1976;51.694;6.256;2022-09-12T14:18:25;35.00;49.00
3923;DHT22;1976;51.694;6.256;2022-09-12T14:20:52;34.80;49.90
3923;DHT22;1976;51.694;6.256;2022-09-12T14:25:52;33.30;50.20
3923;DHT22;1976;51.694;6.256;2022-09-12T14:28:19;32.90;52.30
3923;DHT22;1976;51.694;6.256;2022-09-12T14:31:18;33.10;52.70
3923;DHT22;1976;51.694;6.256;2022-09-12T14:33:47;33.20;51.70
3923;DHT22;1976;51.694;6.256;2022-09-12T14:38:51;33.10;52.20
3923;DHT22;1976;51.694;6.256;2022-09-12T14:41:27;33.20;50.50
3923;DHT22;1976;51.694;6.256;2022-09-12T14:43:57;33.00;52.30
3923;DHT22;1976;51.694;6.256;2022-09-12T14:46:33;32.80;52.10
3923;DHT22;1976;51.694;6.256;2022-09-12T14:49:08;32.70;54.40
3923;DHT22;1976;51.694;6.256;2022-09-12T14:51:39;32.90;52.60
3923;DHT22;1976;51.694;6.256;2022-09-12T14:56:55;33.30;53.00
3923;DHT22;1976;51.694;6.256;2022-09-12T15:04:45;32.30;52.00
3923;DHT22;1976;51.694;6.256;2022-09-12T15:07:40;31.70;52.40
3923;DHT22;1976;51.694;6.256;2022-09-12T15:11:33;31.20;55.40
3923;DHT22;1976;51.694;6.256;2022-09-12T15:14:07;31.00;55.70
3923;DHT22;1976;51.694;6.256;2022-09-12T15:16:37;30.90;55.00
3923;DHT22;1976;51.694;6.256;2022-09-12T15:19:02;30.90;57.70
3923;DHT22;1976;51.694;6.256;2022-09-12T15:21:28;31.00;53.80
3923;DHT22;1976;51.694;6.256;2022-09-12T15:23:53;30.80;55.90
3923;DHT22;1976;51.694;6.256;2022-09-12T15:26:24;30.50;55.20
3923;DHT22;1976;51.694;6.256;2022-09-12T15:28:52;30.30;55.70
3923;DHT22;1976;51.694;6.256;2022-09-12T15:31:25;30.10;56.50
3923;DHT22;1976;51.694;6.256;2022-09-12T15:33:52;29.90;57.30
3923;DHT22;1976;51.694;6.256;2022-09-12T15:36:19;29.90;59.20
3923;DHT22;1976;51.694;6.256;2022-09-12T15:38:46;29.70;58.40
3923;DHT22;1976;51.694;6.256;2022-09-12T15:41:16;29.30;59.90
3923;DHT22;1976;51.694;6.256;2022-09-12T15:46:10;29.20;61.50
3923;DHT22;1976;51.694;6.256;2022-09-12T15:48:36;29.20;59.70
3923;DHT22;1976;51.694;6.256;2022-09-12T15:51:02;29.30;60.10
3923;DHT22;1976;51.694;6.256;2022-09-12T15:53:29;29.30;60.50
3923;DHT22;1976;51.694;6.256;2022-09-12T15:55:55;29.30;61.60
3923;DHT22;1976;51.694;6.256;2022-09-12T15:58:21;29.20;62.90
3923;DHT22;1976;51.694;6.256;2022-09-12T16:00:46;29.20;62.50
3923;DHT22;1976;51.694;6.256;2022-09-12T16:03:30;29.10;63.00
3923;DHT22;1976;51.694;6.256;2022-09-12T16:06:01;29.00;62.90
3923;DHT22;1976;51.694;6.256;2022-09-12T16:08:29;28.80;63.00
3923;DHT22;1976;51.694;6.256;2022-09-12T16:10:58;28.90;63.60
3923;DHT22;1976;51.694;6.256;2022-09-12T16:13:25;28.80;64.90
3923;DHT22;1976;51.694;6.256;2022-09-12T16:15:54;28.70;62.80
3923;DHT22;1976;51.694;6.256;2022-09-12T16:18:20;28.50;64.70
3923;DHT22;1976;51.694;6.256;2022-09-12T16:20:46;28.20;65.50
3923;DHT22;1976;51.694;6.256;2022-09-12T16:23:12;28.20;65.50
3923;DHT22;1976;51.694;6.256;2022-09-12T16:25:38;28.10;67.50
3923;DHT22;1976;51.694;6.256;2022-09-12T16:28:05;27.90;68.80
3923;DHT22;1976;51.694;6.256;2022-09-12T16:30:32;27.90;68.70
3923;DHT22;1976;51.694;6.256;2022-09-12T16:32:57;27.80;69.00
3923;DHT22;1976;51.694;6.256;2022-09-12T16:35:23;28.00;72.80
3923;DHT22;1976;51.694;6.256;2022-09-12T16:37:49;28.30;70.90
3923;DHT22;1976;51.694;6.256;2022-09-12T16:40:15;28.60;71.70
3923;DHT22;1976;51.694;6.256;2022-09-12T16:42:44;28.80;68.30
3923;DHT22;1976;51.694;6.256;2022-09-12T16:47:36;29.00;68.50
3923;DHT22;1976;51.694;6.256;2022-09-12T16:50:02;28.90;67.80
3923;DHT22;1976;51.694;6.256;2022-09-12T16:52:27;28.80;67.40
3923;DHT22;1976;51.694;6.256;2022-09-12T16:54:54;28.60;67.50
3923;DHT22;1976;51.694;6.256;2022-09-12T16:57:20;28.30;70.10
3923;DHT22;1976;51.694;6.256;2022-09-12T16:59:47;28.20;70.20
3923;DHT22;1976;51.694;6.256;2022-09-12T17:02:13;28.10;71.00
3923;DHT22;1976;51.694;6.256;2022-09-12T17:04:39;27.90;70.90
3923;DHT22;1976;51.694;6.256;2022-09-12T17:09:31;27.50;72.60
3923;DHT22;1976;51.694;6.256;2022-09-12T17:11:57;27.10;73.70
3923;DHT22;1976;51.694;6.256;2022-09-12T17:14:23;27.00;75.10
3923;DHT22;1976;51.694;6.256;2022-09-12T17:16:50;26.70;76.60
3923;DHT22;1976;51.694;6.256;2022-09-12T17:19:19;26.60;77.20
3923;DHT22;1976;51.694;6.256;2022-09-12T17:21:45;26.40;77.90
3923;DHT22;1976;51.694;6.256;2022-09-12T17:24:13;26.30;79.90
3923;DHT22;1976;51.694;6.256;2022-09-12T17:26:38;26.20;81.10
3923;DHT22;1976;51.694;6.256;2022-09-12T17:29:04;26.20;82.30
3923;DHT22;1976;51.694;6.256;2022-09-12T17:31:31;26.20;82.60
3923;DHT22;1976;51.694;6.256;2022-09-12T17:33:57;26.10;82.10
3923;DHT22;1976;51.694;6.256;2022-09-12T17:36:24;26.00;83.60
3923;DHT22;1976;51.694;6.256;2022-09-12T17:38:51;25.90;84.80
3923;DHT22;1976;51.694;6.256;2022-09-12T17:41:22;25.80;85.30
3923;DHT22;1976;51.694;6.256;2022-09-12T17:43:50;25.70;85.80
3923;DHT22;1976;51.694;6.256;2022-09-12T17:46:20;25.70;86.50
3923;DHT22;1976;51.694;6.256;2022-09-12T17:48:54;25.60;89.50
3923;DHT22;1976;51.694;6.256;2022-09-12T17:51:21;25.50;90.80
3923;DHT22;1976;51.694;6.256;2022-09-12T17:53:54;25.50;91.30
3923;DHT22;1976;51.694;6.256;2022-09-12T17:56:20;25.40;90.70
3923;DHT22;1976;51.694;6.256;2022-09-12T17:58:47;25.40;90.90
3923;DHT22;1976;51.694;6.256;2022-09-12T18:01:13;25.30;91.00
3923;DHT22;1976;51.694;6.256;2022-09-12T18:03:59;25.20;91.20
3923;DHT22;1976;51.694;6.256;2022-09-12T18:06:29;25.20;91.50
3923;DHT22;1976;51.694;6.256;2022-09-12T18:09:02;25.20;91.70
3923;DHT22;1976;51.694;6.256;2022-09-12T18:11:28;25.20;92.20
3923;DHT22;1976;51.694;6.256;2022-09-12T18:13:54;25.10;92.70
3923;DHT22;1976;51.694;6.256;2022-09-12T18:16:20;25.20;93.40
3923;DHT22;1976;51.694;6.256;2022-09-12T18:18:45;25.10;93.50
3923;DHT22;1976;51.694;6.256;2022-09-12T18:21:11;25.10;93.40
3923;DHT22;1976;51.694;6.256;2022-09-12T18:23:38;25.10;93.50
3923;DHT22;1976;51.694;6.256;2022-09-12T18:26:08;25.00;95.20
3923;DHT22;1976;51.694;6.256;2022-09-12T18:28:35;24.80;95.60
3923;DHT22;1976;51.694;6.256;2022-09-12T18:31:02;24.80;95.90
3923;DHT22;1976;51.694;6.256;2022-09-12T18:33:28;24.60;95.50
3923;DHT22;1976;51.694;6.256;2022-09-12T18:35:53;24.60;95.50
3923;DHT22;1976;51.694;6.256;2022-09-12T18:38:19;24.60;95.90
3923;DHT22;1976;51.694;6.256;2022-09-12T18:40:45;24.60;96.50
3923;DHT22;1976;51.694;6.256;2022-09-12T18:43:10;24.50;98.00
3923;DHT22;1976;51.694;6.256;2022-09-12T18:45:36;24.30;98.50
3923;DHT22;1976;51.694;6.256;2022-09-12T18:48:02;24.20;98.00
3923;DHT22;1976;51.694;6.256;2022-09-12T18:50:30;24.20;98.30
3923;DHT22;1976;51.694;6.256;2022-09-12T18:52:56;24.10;99.10
3923;DHT22;1976;51.694;6.256;2022-09-12T18:55:22;24.00;99.40
3923;DHT22;1976;51.694;6.256;2022-09-12T18:57:48;23.90;99.60
3923;DHT22;1976;51.694;6.256;2022-09-12T19:00:15;23.80;99.80
3923;DHT22;1976;51.694;6.256;2022-09-12T19:02:41;23.70;99.70
3923;DHT22;1976;51.694;6.256;2022-09-12T19:05:07;23.70;99.70
3923;DHT22;1976;51.694;6.256;2022-09-12T19:07:33;23.70;99.70
3923;DHT22;1976;51.694;6.256;2022-09-12T19:09:59;23.60;99.90